Northsea Beta — 9HA2594 — position and weather

sailwx.info

Track history (hours):
 
Tides and Currents Weather Stations Pressure Air Temp Water Temp Dewpoint Dewpoint Depression Visibility Wind Speed Wind Dir Waves Ship Positions

Northsea Beta

Last reported at 2015-Aug-31 19:33 UTC. Time now 2015-Aug-31 21:54 UTC.
Position N 51°53' E 004°18'.

Length 110 m; draft 7 m.

Type: Ship (hazmat cat C). MMSI: 248970000.

Date/timePositionNaut miles runAvg speedWind from/ knotsBaromVisibWave heightAir tempDewpointWater temp
2015-Aug-31 19:33N 51°53' E 004°18'5 4.9
2015-Aug-31 18:33N 51°56' E 004°12'1010.3
2015-Aug-31 17:33N 52°01' E 003°57'6710.7
2015-Aug-31 11:17N 51°32' E 002°20'10 9.9
2015-Aug-31 10:17N 51°25' E 002°09'8 8.8
2015-Aug-31 09:21N 51°17' E 002°06'6 7.5
2015-Aug-31 08:33N 51°13' E 001°59'8 8.1
2015-Aug-31 07:32N 51°08' E 001°49'8 8.3
2015-Aug-31 06:33N 51°02' E 001°39'  
2015-Aug-24 02:32N 50°51' E 001°04'1312.5
2015-Aug-24 01:29N 51°00' E 001°19'1213.2
2015-Aug-24 00:33N 51°08' E 001°35'1313.0
2015-Aug-23 23:33N 51°17' E 001°48'1211.1
2015-Aug-23 22:31N 51°24' E 002°03'2311.0
2015-Aug-23 20:24N 51°23' E 002°40'910.0
2015-Aug-23 19:33N 51°23' E 002°54'2110.6
2015-Aug-23 17:33N 51°25' E 003°28'9 9.3
2015-Aug-23 16:33N 51°25' E 003°43'3 2.6
2015-Aug-23 15:28N 51°23' E 003°47'0 0.1
2015-Aug-23 14:28N 51°23' E 003°47'0 0.1
2015-Aug-23 13:31N 51°23' E 003°46'0 0.0
2015-Aug-23 12:31N 51°23' E 003°46'0 0.0
2015-Aug-23 11:28N 51°23' E 003°46'0 0.0
2015-Aug-23 10:31N 51°23' E 003°46'0 0.0
2015-Aug-23 09:28N 51°23' E 003°46'0 0.0
2015-Aug-23 08:31N 51°23' E 003°46'0 0.0
2015-Aug-23 07:28N 51°23' E 003°46'0 0.1
2015-Aug-23 06:31N 51°23' E 003°47'0 0.0
2015-Aug-23 05:31N 51°23' E 003°47'0 0.0
2015-Aug-23 04:28N 51°23' E 003°47'0 0.0
2015-Aug-23 03:31N 51°23' E 003°47'0 0.1
2015-Aug-23 02:31N 51°23' E 003°46'0 0.0
2015-Aug-23 01:31N 51°23' E 003°46'0 0.0
2015-Aug-23 00:31N 51°23' E 003°46'1 1.1
2015-Aug-22 23:33N 51°24' E 003°45'3 2.4
2015-Aug-22 22:15N 51°21' E 003°46'0 0.0
2015-Aug-22 21:33N 51°21' E 003°46'0 0.0
2015-Aug-22 20:33N 51°21' E 003°46'0 0.0
2015-Aug-22 19:21N 51°21' E 003°46'0 0.0
2015-Aug-22 18:33N 51°21' E 003°46'0 0.0
2015-Aug-22 17:21N 51°21' E 003°46'0 0.0
2015-Aug-22 16:30N 51°21' E 003°46'0 0.0
2015-Aug-22 15:21N 51°21' E 003°46'0 0.0
2015-Aug-22 14:33N 51°21' E 003°46'0 0.0
2015-Aug-22 13:33N 51°21' E 003°46'0 0.0
2015-Aug-22 12:30N 51°21' E 003°46'0 0.0
2015-Aug-22 11:27N 51°21' E 003°46'0 0.0
2015-Aug-22 09:33N 51°21' E 003°46'0 0.0
2015-Aug-22 08:33N 51°21' E 003°46'0 0.0
2015-Aug-22 07:27N 51°21' E 003°46'0 0.0
2015-Aug-22 06:30N 51°21' E 003°46'0 0.0
2015-Aug-22 05:33N 51°21' E 003°46'0 0.0
2015-Aug-22 03:33N 51°21' E 003°46'0 0.0
2015-Aug-22 01:12N 51°21' E 003°46'0 0.0
2015-Aug-22 00:33N 51°21' E 003°46'  
Track history (hours):
 
Tides and Currents Weather Stations Pressure Air Temp Water Temp Dewpoint Dewpoint Depression Visibility Wind Speed Wind Dir Waves Ship Positions

Northsea Beta

Last reported at 2015-Aug-31 19:33 UTC. Time now 2015-Aug-31 21:54 UTC.
Position N 51°53' E 004°18'.

Length 110 m; draft 7 m.

Type: Ship (hazmat cat C). MMSI: 248970000.

Date/timePositionNaut miles runAvg speedWind from/ knotsBaromVisibWave heightAir tempDewpointWater temp
2015-Aug-31 19:33N 51°53' E 004°18'5 4.9
2015-Aug-31 18:33N 51°56' E 004°12'1010.3
2015-Aug-31 17:33N 52°01' E 003°57'6710.7
2015-Aug-31 11:17N 51°32' E 002°20'10 9.9
2015-Aug-31 10:17N 51°25' E 002°09'8 8.8
2015-Aug-31 09:21N 51°17' E 002°06'6 7.5
2015-Aug-31 08:33N 51°13' E 001°59'8 8.1
2015-Aug-31 07:32N 51°08' E 001°49'8 8.3
2015-Aug-31 06:33N 51°02' E 001°39'  
2015-Aug-24 02:32N 50°51' E 001°04'1312.5
2015-Aug-24 01:29N 51°00' E 001°19'1213.2
2015-Aug-24 00:33N 51°08' E 001°35'1313.0
2015-Aug-23 23:33N 51°17' E 001°48'1211.1
2015-Aug-23 22:31N 51°24' E 002°03'2311.0
2015-Aug-23 20:24N 51°23' E 002°40'910.0
2015-Aug-23 19:33N 51°23' E 002°54'2110.6
2015-Aug-23 17:33N 51°25' E 003°28'9 9.3
2015-Aug-23 16:33N 51°25' E 003°43'3 2.6
2015-Aug-23 15:28N 51°23' E 003°47'0 0.1
2015-Aug-23 14:28N 51°23' E 003°47'0 0.1
2015-Aug-23 13:31N 51°23' E 003°46'0 0.0
2015-Aug-23 12:31N 51°23' E 003°46'0 0.0
2015-Aug-23 11:28N 51°23' E 003°46'0 0.0
2015-Aug-23 10:31N 51°23' E 003°46'0 0.0
2015-Aug-23 09:28N 51°23' E 003°46'0 0.0
2015-Aug-23 08:31N 51°23' E 003°46'0 0.0
2015-Aug-23 07:28N 51°23' E 003°46'0 0.1
2015-Aug-23 06:31N 51°23' E 003°47'0 0.0
2015-Aug-23 05:31N 51°23' E 003°47'0 0.0
2015-Aug-23 04:28N 51°23' E 003°47'0 0.0
2015-Aug-23 03:31N 51°23' E 003°47'0 0.1
2015-Aug-23 02:31N 51°23' E 003°46'0 0.0
2015-Aug-23 01:31N 51°23' E 003°46'0 0.0
2015-Aug-23 00:31N 51°23' E 003°46'1 1.1
2015-Aug-22 23:33N 51°24' E 003°45'3 2.4
2015-Aug-22 22:15N 51°21' E 003°46'0 0.0
2015-Aug-22 21:33N 51°21' E 003°46'0 0.0
2015-Aug-22 20:33N 51°21' E 003°46'0 0.0
2015-Aug-22 19:21N 51°21' E 003°46'0 0.0
2015-Aug-22 18:33N 51°21' E 003°46'0 0.0
2015-Aug-22 17:21N 51°21' E 003°46'0 0.0
2015-Aug-22 16:30N 51°21' E 003°46'0 0.0
2015-Aug-22 15:21N 51°21' E 003°46'0 0.0
2015-Aug-22 14:33N 51°21' E 003°46'0 0.0
2015-Aug-22 13:33N 51°21' E 003°46'0 0.0
2015-Aug-22 12:30N 51°21' E 003°46'0 0.0
2015-Aug-22 11:27N 51°21' E 003°46'0 0.0
2015-Aug-22 09:33N 51°21' E 003°46'0 0.0
2015-Aug-22 08:33N 51°21' E 003°46'0 0.0
2015-Aug-22 07:27N 51°21' E 003°46'0 0.0
2015-Aug-22 06:30N 51°21' E 003°46'0 0.0
2015-Aug-22 05:33N 51°21' E 003°46'0 0.0
2015-Aug-22 03:33N 51°21' E 003°46'0 0.0
2015-Aug-22 01:12N 51°21' E 003°46'0 0.0
2015-Aug-22 00:33N 51°21' E 003°46'  

Dump ship's entire track history